Time;durP1;ratioP1;P1;durP2;ratioP2;P2;SDS_P1;SDS_P2;PMS_P1;PMS_P2;Temp;Humidity;BMP_temperature;BMP_pressure;BME280_temperature;BME280_humidity;BME280_pressure;Samples;Min_cycle;Max_cycle;Signal;HPM_P1;HPM_P2
2021/07/21 06:43:27;;;;;;;;;;;;;;;21.44;37.81;97541.09;5080809;28;1168;-88
2021/07/21 06:45:59;;;;;;;;;;;;;;;23.01;33.79;97530.56;5079049;28;1125;-82
2021/07/21 06:48:26;;;;;;;;;;;;;;;23.41;33.09;97546.78;5077777;28;856;-86
2021/07/21 06:50:52;;;;;;;;;;;;;;;23.54;32.34;97547.47;5078601;28;1361;-86
2021/07/21 06:53:19;;;;;;;;;;;;;;;23.51;32.09;97541.91;5079287;28;1196;-85
2021/07/21 06:56:03;;;;;;;;;;;;;;;23.70;31.87;97552.09;5094554;28;465;-85
2021/07/21 06:58:36;;;;;;;;;;;;;;;23.66;31.86;97540.09;5078907;28;1334;-86
2021/07/21 07:01:07;;;;;;;;;;;;;;;23.59;32.19;97551.75;5064323;28;1906;-85
2021/07/21 07:03:51;;;;;;;;;;;;;;;23.68;31.54;97554.63;5093419;28;682;-86
2021/07/21 07:06:37;;;;;;;;;;;;;;;23.69;31.51;97550.53;5093816;28;579;-85
2021/07/21 07:09:21;;;;;;;;;;;;;;;23.59;31.22;97552.53;5093234;28;488;-85
2021/07/21 07:12:11;;;;;;;;;;;;;;;23.50;31.28;97549.66;5078419;28;1922;-82
2021/07/21 07:14:36;;;;;;;;;;;;;;;23.60;30.96;97559.00;5077812;28;1237;-84
2021/07/21 07:17:02;;;;;;;;;;;;;;;23.65;30.90;97556.34;5078239;28;932;-82
2021/07/21 07:19:27;;;;;;;;;;;;;;;23.58;31.11;97555.84;5093421;28;1121;-84
2021/07/21 07:21:53;;;;;;;;;;;;;;;23.60;31.11;97561.84;5094658;28;863;-84
2021/07/21 07:24:18;;;;;;;;;;;;;;;23.59;30.78;97563.09;5093587;28;904;-85
2021/07/21 07:26:44;;;;;;;;;;;;;;;23.70;30.59;97557.78;5095238;28;549;-85
2021/07/21 07:29:09;;;;;;;;;;;;;;;23.68;30.95;97566.00;5076754;28;1039;-85
2021/07/21 07:31:35;;;;;;;;;;;;;;;23.71;30.72;97569.94;5077159;28;1913;-86
2021/07/21 07:34:00;;;;;;;;;;;;;;;23.81;30.61;97575.16;5076283;28;896;-85
2021/07/21 07:36:26;;;;;;;;;;;;;;;23.69;30.43;97572.47;5077114;28;841;-85
2021/07/21 07:38:51;;;;;;;;;;;;;;;23.58;30.60;97561.53;5060620;28;1035;-84
2021/07/21 07:41:20;;;;;;;;;;;;;;;23.91;31.33;97561.78;5076966;28;1090;-81
2021/07/21 07:43:45;;;;;;;;;;;;;;;23.72;35.21;97572.28;5075398;28;1103;-76
2021/07/21 07:46:11;;;;;;;;;;;;;;;24.04;36.09;97567.31;5074969;28;892;-75
2021/07/21 07:48:36;;;;;;;;;;;;;;;24.36;36.68;97574.47;5075911;28;847;-78
2021/07/21 07:51:02;;;;;;;;;;;;;;;24.43;36.29;97560.69;5076562;28;1906;-84
2021/07/21 07:53:27;;;;;;;;;;;;;;;24.08;35.69;97567.94;5070209;28;778;-84
2021/07/21 07:55:53;;;;;;;;;;;;;;;24.06;35.09;97559.09;5080132;28;650;-83
2021/07/21 07:58:18;;;;;;;;;;;;;;;24.00;34.45;97569.53;5050257;28;1055;-86
2021/07/21 08:00:44;;;;;;;;;;;;;;;24.14;33.40;97574.59;5047756;28;1258;-82
2021/07/21 08:03:09;;;;;;;;;;;;;;;23.92;33.05;97575.50;5063516;28;854;-84
2021/07/21 08:05:36;;;;;;;;;;;;;;;23.95;32.82;97573.00;5062031;28;882;-83
2021/07/21 08:08:01;;;;;;;;;;;;;;;24.06;32.17;97568.41;5062846;28;661;-83
2021/07/21 08:10:27;;;;;;;;;;;;;;;23.98;31.70;97574.88;5062698;28;629;-83
2021/07/21 08:12:53;;;;;;;;;;;;;;;23.99;31.67;97574.41;5063180;28;1981;-84
2021/07/21 08:15:18;;;;;;;;;;;;;;;24.02;31.33;97575.50;5063437;28;778;-84
2021/07/21 08:17:44;;;;;;;;;;;;;;;23.88;31.33;97574.88;5061858;28;1139;-83
2021/07/21 08:20:09;;;;;;;;;;;;;;;23.88;30.97;97574.88;5061674;28;873;-83
2021/07/21 08:22:41;;;;;;;;;;;;;;;23.88;30.92;97574.88;5062367;28;943;-83
2021/07/21 08:25:09;;;;;;;;;;;;;;;23.72;31.03;97572.28;5062216;28;610;-83
2021/07/21 08:27:37;;;;;;;;;;;;;;;23.75;30.85;97571.38;5062610;28;661;-83
2021/07/21 08:30:03;;;;;;;;;;;;;;;23.64;30.78;97573.88;5062372;28;697;-83
2021/07/21 08:32:29;;;;;;;;;;;;;;;23.64;30.95;97576.72;5061816;28;1909;-83
2021/07/21 08:34:54;;;;;;;;;;;;;;;23.83;30.25;97569.03;5061229;28;873;-83
2021/07/21 08:37:20;;;;;;;;;;;;;;;23.75;30.71;97571.38;5063280;28;999;-83
2021/07/21 08:39:45;;;;;;;;;;;;;;;23.74;30.15;97575.47;5060812;28;857;-81
2021/07/21 08:42:10;;;;;;;;;;;;;;;23.68;30.36;97570.91;5061633;28;1030;-84
2021/07/21 08:44:36;;;;;;;;;;;;;;;23.68;30.24;97570.91;5044844;28;622;-83
2021/07/21 08:47:02;;;;;;;;;;;;;;;23.66;30.21;97574.19;5061758;28;921;-85
2021/07/21 08:49:27;;;;;;;;;;;;;;;23.72;30.05;97572.28;5061550;28;898;-85
2021/07/21 08:51:53;;;;;;;;;;;;;;;23.85;29.89;97575.81;5045645;28;1918;-83
2021/07/21 08:54:18;;;;;;;;;;;;;;;23.63;30.13;97575.13;5063452;28;1215;-87
2021/07/21 08:56:44;;;;;;;;;;;;;;;23.64;30.19;97576.72;5066541;28;750;-87
2021/07/21 08:59:09;;;;;;;;;;;;;;;23.66;30.21;97574.19;5048186;28;1222;-89
2021/07/21 09:01:36;;;;;;;;;;;;;;;23.66;29.77;97568.50;5066980;28;1297;-88
2021/07/21 09:04:02;;;;;;;;;;;;;;;23.72;29.67;97560.16;5048100;28;1113;-85
2021/07/21 09:06:28;;;;;;;;;;;;;;;23.59;30.19;97569.56;5062019;28;1080;-85
2021/07/21 09:08:53;;;;;;;;;;;;;;;23.66;30.23;97571.34;5048453;28;1300;-86
2021/07/21 09:11:19;;;;;;;;;;;;;;;23.64;30.01;97576.72;5080623;28;1902;-87
2021/07/21 09:13:44;;;;;;;;;;;;;;;23.63;30.05;97564.56;5062647;28;943;-84
2021/07/21 09:16:10;;;;;;;;;;;;;;;23.73;29.96;97568.22;5045861;28;1202;-85
2021/07/21 09:19:05;;;;;;;;;;;;;;;23.72;30.01;97577.97;5027870;28;1217;-87
2021/07/21 09:21:31;;;;;;;;;;;;;;;23.70;30.02;97574.03;5036333;28;1293;-84
2021/07/21 09:23:57;;;;;;;;;;;;;;;23.74;29.78;97574.69;5028648;28;1285;-85
2021/07/21 09:26:22;;;;;;;;;;;;;;;23.78;29.75;97576.13;5028797;28;1178;-84
2021/07/21 09:28:48;;;;;;;;;;;;;;;23.71;29.96;97575.63;5061610;28;657;-86
2021/07/21 09:31:15;;;;;;;;;;;;;;;23.71;29.68;97570.72;5045998;28;1980;-84
2021/07/21 09:33:42;;;;;;;;;;;;;;;23.63;29.80;97569.47;5061702;28;834;-87
2021/07/21 09:36:07;;;;;;;;;;;;;;;23.65;29.72;97573.41;5045917;28;1365;-84
2021/07/21 09:38:33;;;;;;;;;;;;;;;23.62;30.12;97567.81;5045204;28;1502;-84
2021/07/21 09:41:00;;;;;;;;;;;;;;;23.62;29.73;97550.78;5045850;28;747;-88
2021/07/21 09:43:27;;;;;;;;;;;;;;;23.70;29.75;97569.16;5061723;28;1046;-87
2021/07/21 09:45:52;;;;;;;;;;;;;;;23.76;29.58;97578.63;5028658;28;1163;-85
2021/07/21 09:48:21;;;;;;;;;;;;;;;23.59;29.74;97569.56;5060150;28;941;-84
2021/07/21 09:50:47;;;;;;;;;;;;;;;23.66;29.65;97565.66;5062254;28;1270;-86
2021/07/21 09:53:13;;;;;;;;;;;;;;;23.68;29.96;97563.16;5060894;28;1978;-86
2021/07/21 09:55:39;;;;;;;;;;;;;;;23.61;29.75;97566.25;5061536;28;594;-83
2021/07/21 09:58:04;;;;;;;;;;;;;;;23.60;29.90;97559.00;5061156;28;746;-84
2021/07/21 10:00:37;;;;;;;;;;;;;;;23.77;29.65;97557.47;5061634;28;904;-83
2021/07/21 10:03:13;;;;;;;;;;;;;;;23.49;29.76;97552.97;5060321;28;1103;-85
2021/07/21 10:05:57;;;;;;;;;;;;;;;23.67;29.90;97557.94;5050458;28;910;-83
2021/07/21 10:08:30;;;;;;;;;;;;;;;23.52;30.06;97554.84;5040772;28;1154;-81
2021/07/21 10:10:56;;;;;;;;;;;;;;;23.66;29.96;97557.13;5067816;28;1062;-83
2021/07/21 10:13:21;;;;;;;;;;;;;;;23.73;29.88;97539.81;5059730;28;1910;-82
2021/07/21 10:15:48;;;;;;;;;;;;;;;23.82;29.81;97550.38;5059757;28;895;-83
2021/07/21 10:18:14;;;;;;;;;;;;;;;23.72;29.96;97554.47;5060086;28;1197;-86
2021/07/21 10:20:40;;;;;;;;;;;;;;;23.70;29.87;97554.94;5044395;28;910;-86
2021/07/21 10:23:05;;;;;;;;;;;;;;;23.65;30.16;97562.03;5061385;28;1299;-84
2021/07/21 10:25:31;;;;;;;;;;;;;;;23.55;30.32;97548.25;5061520;28;626;-84
2021/07/21 10:27:58;;;;;;;;;;;;;;;23.68;30.08;97560.31;5043356;28;906;-86
2021/07/21 10:30:24;;;;;;;;;;;;;;;23.63;29.99;97555.25;5043751;28;1309;-84
2021/07/21 10:32:50;;;;;;;;;;;;;;;23.70;30.08;97552.09;5042666;28;1891;-85
2021/07/21 10:35:16;;;;;;;;;;;;;;;23.66;29.79;97540.09;5043609;28;1173;-84
2021/07/21 10:37:41;;;;;;;;;;;;;;;23.82;29.82;97542.66;5060288;28;991;-83
2021/07/21 10:40:07;;;;;;;;;;;;;;;23.71;29.80;97548.00;5059986;28;1164;-84
2021/07/21 10:42:33;;;;;;;;;;;;;;;23.55;30.04;97545.41;5060750;28;1275;-84
2021/07/21 10:45:14;;;;;;;;;;;;;;;23.63;30.19;97539.00;5043956;28;1162;-85
2021/07/21 10:47:47;;;;;;;;;;;;;;;23.52;30.40;97543.50;5060144;28;1150;-82
2021/07/21 10:50:32;;;;;;;;;;;;;;;23.62;30.02;97545.09;5058992;28;966;-83
2021/07/21 10:53:16;;;;;;;;;;;;;;;23.56;30.48;97552.66;5060511;28;1914;-85
2021/07/21 10:55:46;;;;;;;;;;;;;;;23.52;30.19;97549.19;5060889;28;1174;-86
2021/07/21 11:00:55;;;;;;;;;;;;;;;23.66;29.85;97554.28;5046987;28;1293;-85
2021/07/21 11:03:22;;;;;;;;;;;;;;;23.78;29.65;97547.72;5043617;28;1148;-86
2021/07/21 11:06:10;;;;;;;;;;;;;;;23.80;29.60;97539.50;5060364;28;1293;-86
2021/07/21 11:08:45;;;;;;;;;;;;;;;23.71;30.01;97530.16;5059467;28;914;-85
2021/07/21 11:11:17;;;;;;;;;;;;;;;23.66;30.20;97528.72;5043628;28;1875;-85
2021/07/21 11:13:42;;;;;;;;;;;;;;;23.63;29.95;97541.06;5059013;28;778;-86
2021/07/21 11:16:28;;;;;;;;;;;;;;;23.66;29.89;97523.06;5044773;28;1177;-84
2021/07/21 11:18:53;;;;;;;;;;;;;;;23.66;30.11;97540.09;5043528;28;1162;-85
2021/07/21 11:21:20;;;;;;;;;;;;;;;23.57;30.17;97528.69;5061091;28;886;-87
2021/07/21 11:23:52;;;;;;;;;;;;;;;23.54;30.39;97526.81;5076789;28;860;-86
2021/07/21 11:26:26;;;;;;;;;;;;;;;23.66;29.81;97523.06;5062167;28;1222;-87
2021/07/21 11:28:52;;;;;;;;;;;;;;;23.63;29.96;97524.81;5062280;28;1162;-85
2021/07/21 11:31:17;;;;;;;;;;;;;;;23.69;30.22;97527.81;5066185;28;1950;-85
2021/07/21 11:33:54;;;;;;;;;;;;;;;23.88;29.85;97529.41;5064108;28;853;-85
2021/07/21 11:36:39;;;;;;;;;;;;;;;23.71;29.87;97519.59;5065918;28;832;-85
2021/07/21 11:39:04;;;;;;;;;;;;;;;23.62;30.33;97519.53;5064957;28;917;-84
2021/07/21 11:41:50;;;;;;;;;;;;;;;23.60;30.17;97519.22;5065655;28;1156;-85
2021/07/21 11:44:20;;;;;;;;;;;;;;;23.55;30.40;97522.69;5065204;28;1311;-86
2021/07/21 11:46:45;;;;;;;;;;;;;;;23.64;30.17;97522.75;5050216;28;1182;-86
2021/07/21 11:49:11;;;;;;;;;;;;;;;23.60;30.18;97514.34;5048664;28;757;-86
2021/07/21 11:51:36;;;;;;;;;;;;;;;23.69;29.94;97512.81;5047217;28;1909;-85
2021/07/21 11:54:02;;;;;;;;;;;;;;;23.69;29.80;97522.13;5046552;28;926;-83
2021/07/21 11:56:27;;;;;;;;;;;;;;;23.74;29.87;97518.66;5063827;28;1050;-85
2021/07/21 11:59:02;;;;;;;;;;;;;;;23.69;29.70;97512.81;5048028;28;1261;-87
2021/07/21 12:01:27;;;;;;;;;;;;;;;23.87;29.53;97519.28;5066268;28;782;-85
2021/07/21 12:03:53;;;;;;;;;;;;;;;23.77;29.71;97512.03;5048885;28;1274;-85
2021/07/21 12:06:25;;;;;;;;;;;;;;;23.69;29.95;97516.44;5063817;28;877;-86
2021/07/21 12:08:52;;;;;;;;;;;;;;;23.62;30.10;97516.69;5046228;28;1108;-86
2021/07/21 12:11:18;;;;;;;;;;;;;;;23.68;29.88;97520.56;5046590;28;1967;-86
2021/07/21 12:13:43;;;;;;;;;;;;;;;23.68;29.86;97529.06;5045838;28;1298;-85
2021/07/21 12:16:09;;;;;;;;;;;;;;;23.63;29.92;97516.28;5066389;28;602;-86
2021/07/21 12:18:34;;;;;;;;;;;;;;;23.52;30.01;97524.44;5064080;28;693;-85
2021/07/21 12:21:07;;;;;;;;;;;;;;;23.69;29.95;97524.19;5048285;28;1151;-82
2021/07/21 12:23:44;;;;;;;;;;;;;;;23.69;29.49;97522.13;5061501;28;847;-87
2021/07/21 12:26:10;;;;;;;;;;;;;;;23.59;30.05;97529.03;5032878;28;1289;-83
2021/07/21 12:28:35;;;;;;;;;;;;;;;23.66;30.03;97523.06;5062951;28;618;-82
2021/07/21 12:31:01;;;;;;;;;;;;;;;23.77;29.72;97523.38;5066666;28;1387;-87
2021/07/21 12:33:26;;;;;;;;;;;;;;;23.80;29.56;97521.66;5047720;28;1902;-87
2021/07/21 12:35:52;;;;;;;;;;;;;;;23.82;29.76;97513.44;5067176;28;948;-85
2021/07/21 12:38:17;;;;;;;;;;;;;;;23.90;29.46;97509.84;5066456;28;883;-87
2021/07/21 12:40:42;;;;;;;;;;;;;;;23.82;29.58;97514.22;5050713;28;1264;-87
2021/07/21 12:43:08;;;;;;;;;;;;;;;23.73;29.68;97517.09;5066838;28;1044;-87
2021/07/21 12:45:33;;;;;;;;;;;;;;;23.68;29.99;97514.88;5050856;28;1254;-88
2021/07/21 12:47:59;;;;;;;;;;;;;;;23.54;29.96;97515.44;5067628;28;762;-87
2021/07/21 12:50:28;;;;;;;;;;;;;;;23.57;29.87;97514.47;5067121;28;922;-87
2021/07/21 12:52:58;;;;;;;;;;;;;;;23.63;30.02;97518.34;5033829;28;1969;-87
2021/07/21 12:55:33;;;;;;;;;;;;;;;23.62;29.75;97517.53;5067655;28;814;-87
2021/07/21 12:57:59;;;;;;;;;;;;;;;23.57;30.03;97509.63;5067389;28;1167;-87
2021/07/21 13:00:25;;;;;;;;;;;;;;;23.63;29.91;97506.97;5066916;28;670;-87
2021/07/21 13:02:59;;;;;;;;;;;;;;;23.73;29.72;97517.09;5050754;28;735;-86
2021/07/21 13:05:29;;;;;;;;;;;;;;;23.62;29.63;97511.03;5049746;28;897;-87
2021/07/21 13:07:55;;;;;;;;;;;;;;;23.70;29.44;97511.56;5066801;28;925;-87
2021/07/21 13:10:20;;;;;;;;;;;;;;;23.67;29.58;97512.47;5066499;28;874;-87
2021/07/21 13:12:46;;;;;;;;;;;;;;;23.66;29.69;97520.22;5050315;28;1995;-87
2021/07/21 13:15:13;;;;;;;;;;;;;;;23.69;29.69;97509.97;5050080;28;1290;-87
2021/07/21 13:17:38;;;;;;;;;;;;;;;23.70;29.76;97518.03;5050669;28;1268;-87
2021/07/21 13:20:05;;;;;;;;;;;;;;;23.61;29.87;97509.44;5049086;28;1182;-87
2021/07/21 13:22:31;;;;;;;;;;;;;;;23.68;29.55;97514.09;5066598;28;844;-87
2021/07/21 13:24:56;;;;;;;;;;;;;;;23.59;29.81;97509.94;5049928;28;1455;-87
2021/07/21 13:27:28;;;;;;;;;;;;;;;23.79;29.58;97511.56;5066963;28;1185;-87
2021/07/21 13:29:55;;;;;;;;;;;;;;;23.52;29.80;97513.06;5066981;28;703;-87
2021/07/21 13:32:25;;;;;;;;;;;;;;;23.53;29.59;97508.97;5050757;28;1969;-87
2021/07/21 13:35:01;;;;;;;;;;;;;;;23.65;29.54;97513.75;5049941;28;1264;-87
2021/07/21 13:37:27;;;;;;;;;;;;;;;23.44;30.00;97511.00;5033195;28;1183;-87
2021/07/21 13:39:52;;;;;;;;;;;;;;;23.51;29.80;97516.38;5049488;28;1155;-87
2021/07/21 13:42:18;;;;;;;;;;;;;;;23.53;29.72;97508.19;5083586;28;1167;-87
2021/07/21 13:44:46;;;;;;;;;;;;;;;23.59;29.86;97506.28;5066513;28;646;-87
2021/07/21 13:47:11;;;;;;;;;;;;;;;23.64;29.72;97505.72;5049421;28;1164;-88
2021/07/21 13:49:43;;;;;;;;;;;;;;;23.53;29.85;97508.19;5048994;28;1306;-87
2021/07/21 13:52:12;;;;;;;;;;;;;;;23.66;29.57;97514.53;5048741;28;1906;-87
2021/07/21 13:54:47;;;;;;;;;;;;;;;23.54;29.81;97504.88;5049854;28;1318;-87
2021/07/21 13:57:13;;;;;;;;;;;;;;;23.49;29.68;97507.53;5067164;28;790;-87
2021/07/21 13:59:39;;;;;;;;;;;;;;;23.63;29.50;97506.97;5047982;28;1272;-87
2021/07/21 14:02:08;;;;;;;;;;;;;;;23.55;29.49;97505.66;5066359;28;1204;-87
2021/07/21 14:04:34;;;;;;;;;;;;;;;23.62;29.73;97513.84;5065609;28;1081;-87
2021/07/21 14:07:01;;;;;;;;;;;;;;;23.51;29.80;97511.47;5065943;28;990;-87
2021/07/21 14:09:26;;;;;;;;;;;;;;;23.56;29.65;97507.22;5048814;28;1170;-87
2021/07/21 14:11:52;;;;;;;;;;;;;;;23.54;29.83;97510.53;5049139;28;1969;-87
2021/07/21 14:14:17;;;;;;;;;;;;;;;23.56;29.82;97513.69;5049132;28;770;-87
2021/07/21 14:16:45;;;;;;;;;;;;;;;23.54;29.42;97521.13;5066437;28;1344;-87
2021/07/21 14:19:11;;;;;;;;;;;;;;;23.56;29.54;97518.59;5049255;28;1339;-87
2021/07/21 14:21:36;;;;;;;;;;;;;;;23.51;29.44;97511.47;5048545;28;932;-86
2021/07/21 14:24:02;;;;;;;;;;;;;;;23.42;29.71;97513.53;5065103;28;830;-87
2021/07/21 14:26:28;;;;;;;;;;;;;;;23.53;29.39;97513.88;5048636;28;1172;-87
2021/07/21 14:28:54;;;;;;;;;;;;;;;23.52;29.81;97512.25;5048454;28;1259;-87
2021/07/21 14:31:20;;;;;;;;;;;;;;;23.52;29.50;97513.06;5065647;28;1976;-87
2021/07/21 14:33:46;;;;;;;;;;;;;;;23.51;29.56;97516.38;5064434;28;989;-87
2021/07/21 14:36:11;;;;;;;;;;;;;;;23.61;29.51;97503.75;5065069;28;1410;-87
2021/07/21 14:38:38;;;;;;;;;;;;;;;23.70;29.16;97518.03;5064936;28;893;-86
2021/07/21 14:41:04;;;;;;;;;;;;;;;23.54;29.28;97515.44;5065363;28;1032;-87
2021/07/21 14:43:29;;;;;;;;;;;;;;;23.50;29.50;97520.47;5064809;28;733;-87
2021/07/21 14:45:55;;;;;;;;;;;;;;;23.59;29.36;97501.41;5065652;28;652;-87
2021/07/21 14:48:20;;;;;;;;;;;;;;;23.53;29.37;97513.88;5031623;28;1213;-87
2021/07/21 14:50:46;;;;;;;;;;;;;;;23.57;29.37;97520.16;5064165;28;1004;-87
2021/07/21 14:53:11;;;;;;;;;;;;;;;23.51;29.36;97510.69;5065094;28;1989;-87
2021/07/21 14:55:37;;;;;;;;;;;;;;;23.58;29.18;97510.41;5048247;28;1295;-87
2021/07/21 14:58:02;;;;;;;;;;;;;;;23.54;29.35;97504.09;5064956;28;709;-86
2021/07/21 15:00:28;;;;;;;;;;;;;;;23.40;29.58;97506.25;5048309;28;1221;-86
2021/07/21 15:02:54;;;;;;;;;;;;;;;23.50;29.14;97523.31;5047568;28;1034;-87
2021/07/21 15:05:19;;;;;;;;;;;;;;;23.69;28.94;97507.91;5051833;28;1154;-87
2021/07/21 15:07:45;;;;;;;;;;;;;;;23.56;29.34;97501.53;5085768;28;1058;-87
2021/07/21 15:10:11;;;;;;;;;;;;;;;23.61;29.29;97510.22;5052784;28;1154;-87
2021/07/21 15:12:37;;;;;;;;;;;;;;;23.67;29.16;97512.47;5052442;28;1894;-87
2021/07/21 15:15:06;;;;;;;;;;;;;;;23.61;29.04;97515.13;5069204;28;685;-87
2021/07/21 15:17:31;;;;;;;;;;;;;;;23.64;28.79;97505.72;5069276;28;946;-87
2021/07/21 15:19:57;;;;;;;;;;;;;;;23.59;28.79;97500.63;5052297;28;1328;-86
2021/07/21 15:22:22;;;;;;;;;;;;;;;23.55;29.32;97495.09;5052217;28;1229;-86
2021/07/21 15:24:48;;;;;;;;;;;;;;;23.46;29.25;97497.09;5052790;28;1466;-87
2021/07/21 15:27:16;;;;;;;;;;;;;;;23.49;29.21;97499.03;5051935;28;1426;-87
2021/07/21 15:29:42;;;;;;;;;;;;;;;23.61;28.80;97504.56;5052497;28;849;-87
2021/07/21 15:32:08;;;;;;;;;;;;;;;23.45;29.04;97506.91;5067915;28;1952;-87
2021/07/21 15:34:34;;;;;;;;;;;;;;;23.32;29.24;97510.66;5051932;28;1390;-87
2021/07/21 15:36:59;;;;;;;;;;;;;;;23.37;29.35;97512.88;5052915;28;1321;-87
2021/07/21 15:39:25;;;;;;;;;;;;;;;23.38;29.27;97514.44;5068315;28;656;-87
2021/07/21 15:41:51;;;;;;;;;;;;;;;23.52;29.13;97509.41;5035786;28;1247;-87
2021/07/21 15:44:17;;;;;;;;;;;;;;;23.37;29.29;97515.72;5035213;28;1268;-87
2021/07/21 15:46:42;;;;;;;;;;;;;;;23.46;29.11;97516.97;5068386;28;959;-87
2021/07/21 15:49:08;;;;;;;;;;;;;;;23.35;29.19;97518.22;5066991;28;929;-86
2021/07/21 15:51:33;;;;;;;;;;;;;;;23.32;29.40;97516.34;5051834;28;1976;-87
2021/07/21 15:53:59;;;;;;;;;;;;;;;23.51;29.10;97520.00;5034873;28;1180;-87
2021/07/21 15:56:24;;;;;;;;;;;;;;;23.64;28.63;97519.91;5068350;28;746;-87
2021/07/21 15:58:56;;;;;;;;;;;;;;;23.57;29.08;97520.16;5067824;28;844;-87
2021/07/21 16:01:32;;;;;;;;;;;;;;;23.55;29.02;97517.00;5068155;28;967;-87
2021/07/21 16:03:57;;;;;;;;;;;;;;;23.45;28.92;97526.75;5050844;28;1160;-87
2021/07/21 16:06:22;;;;;;;;;;;;;;;23.53;29.09;97530.91;5051393;28;1225;-86
2021/07/21 16:08:49;;;;;;;;;;;;;;;23.49;29.01;97530.25;5067365;28;830;-87
2021/07/21 16:11:14;;;;;;;;;;;;;;;23.52;28.97;97523.63;5051477;28;1277;-87
2021/07/21 16:13:40;;;;;;;;;;;;;;;23.42;29.05;97524.88;5049935;28;2219;-86
2021/07/21 16:16:07;;;;;;;;;;;;;;;23.25;29.52;97530.00;5067152;28;872;-86
2021/07/21 16:18:33;;;;;;;;;;;;;;;23.32;28.95;97532.59;5050823;28;1153;-87
2021/07/21 16:20:59;;;;;;;;;;;;;;;23.35;29.23;97535.25;5066855;28;849;-86
2021/07/21 16:23:24;;;;;;;;;;;;;;;23.37;29.26;97543.31;5050037;28;1169;-85
2021/07/21 16:25:50;;;;;;;;;;;;;;;23.44;28.91;97536.56;5048221;28;870;-86
2021/07/21 16:28:15;;;;;;;;;;;;;;;23.43;29.00;97538.59;5050299;28;1176;-86
2021/07/21 16:30:40;;;;;;;;;;;;;;;23.46;28.89;97536.88;5049806;28;1217;-86
2021/07/21 16:33:06;;;;;;;;;;;;;;;23.52;28.89;97544.31;5067449;28;1886;-86
2021/07/21 16:35:32;;;;;;;;;;;;;;;23.56;28.63;97541.31;5049934;28;894;-86
2021/07/21 16:37:57;;;;;;;;;;;;;;;23.55;28.71;97545.41;5050180;28;1248;-86
2021/07/21 16:40:22;;;;;;;;;;;;;;;23.47;28.99;97549.81;5050355;28;1173;-86
2021/07/21 16:42:48;;;;;;;;;;;;;;;23.55;28.87;97551.88;5051049;28;1162;-86
2021/07/21 16:45:14;;;;;;;;;;;;;;;23.55;28.86;97545.41;5049821;28;932;-86
2021/07/21 16:47:40;;;;;;;;;;;;;;;23.53;28.56;97553.63;5049312;28;918;-87
2021/07/21 16:50:05;;;;;;;;;;;;;;;23.55;28.57;97551.09;5067408;28;905;-87
2021/07/21 16:52:31;;;;;;;;;;;;;;;23.42;28.64;97550.44;5049790;28;2057;-87
2021/07/21 16:54:57;;;;;;;;;;;;;;;23.51;28.83;97556.13;5067101;28;818;-86
2021/07/21 16:57:22;;;;;;;;;;;;;;;23.56;28.62;97559.13;5067275;28;1192;-86
2021/07/21 16:59:49;;;;;;;;;;;;;;;23.54;28.56;97560.88;5050020;28;1307;-87
2021/07/21 17:02:14;;;;;;;;;;;;;;;23.53;28.74;97576.34;5050533;28;1190;-86
2021/07/21 17:04:40;;;;;;;;;;;;;;;23.45;29.06;97569.34;5048970;28;1261;-87
2021/07/21 17:07:05;;;;;;;;;;;;;;;23.50;28.76;97575.22;5067189;28;665;-87
2021/07/21 17:09:31;;;;;;;;;;;;;;;23.50;29.04;97582.94;5049674;28;1262;-87
2021/07/21 17:11:58;;;;;;;;;;;;;;;23.44;28.90;97584.81;5066303;28;1962;-86
2021/07/21 17:14:24;;;;;;;;;;;;;;;23.62;28.66;97590.53;5049419;28;1337;-87
2021/07/21 17:16:49;;;;;;;;;;;;;;;23.49;29.21;97592.72;5065275;28;974;-87
2021/07/21 17:19:20;;;;;;;;;;;;;;;23.55;28.90;97585.97;5066577;28;959;-87
2021/07/21 17:21:46;;;;;;;;;;;;;;;23.34;29.37;97593.28;5067303;28;1181;-86
2021/07/21 17:24:11;;;;;;;;;;;;;;;23.40;29.08;97596.31;5066521;28;657;-87
2021/07/21 17:26:36;;;;;;;;;;;;;;;23.49;28.82;97595.56;5032964;28;1174;-87
2021/07/21 17:29:08;;;;;;;;;;;;;;;23.43;29.20;97591.75;5066315;28;953;-87
2021/07/21 17:31:34;;;;;;;;;;;;;;;23.43;29.07;97588.91;5049386;28;1973;-87
2021/07/21 17:33:59;;;;;;;;;;;;;;;23.33;29.30;97579.56;5049785;28;961;-87
2021/07/21 17:36:25;;;;;;;;;;;;;;;23.46;28.86;97587.97;5066664;28;1157;-87
2021/07/21 17:38:50;;;;;;;;;;;;;;;23.58;28.93;97578.56;5049290;28;1184;-87
2021/07/21 17:41:16;;;;;;;;;;;;;;;23.43;28.93;97588.91;5066023;28;1145;-87
2021/07/21 17:43:41;;;;;;;;;;;;;;;23.49;28.96;97587.03;5048938;28;1179;-87
2021/07/21 17:46:07;;;;;;;;;;;;;;;23.65;28.78;97595.31;5049307;28;1287;-87
2021/07/21 17:48:32;;;;;;;;;;;;;;;23.51;28.71;97590.19;5049609;28;1172;-87
2021/07/21 17:50:58;;;;;;;;;;;;;;;23.45;28.97;97592.06;5066819;28;747;-87
2021/07/21 17:53:26;;;;;;;;;;;;;;;23.42;28.86;97593.81;5066082;28;1973;-88
2021/07/21 17:55:54;;;;;;;;;;;;;;;23.42;29.06;97595.88;5066355;28;773;-87
2021/07/21 17:58:19;;;;;;;;;;;;;;;23.53;28.89;97611.22;5066626;28;1055;-88
2021/07/21 18:00:45;;;;;;;;;;;;;;;23.45;28.80;97611.94;5049618;28;1278;-88
2021/07/21 18:03:11;;;;;;;;;;;;;;;23.37;28.96;97620.75;5049885;28;1149;-87
2021/07/21 18:05:37;;;;;;;;;;;;;;;23.46;28.70;97622.03;5049553;28;1105;-87
2021/07/21 18:08:02;;;;;;;;;;;;;;;23.45;28.40;97624.09;5048454;28;1177;-87
2021/07/21 18:10:31;;;;;;;;;;;;;;;23.48;28.58;97631.69;5066317;28;1191;-87
2021/07/21 18:12:57;;;;;;;;;;;;;;;23.47;28.65;97629.31;5065034;28;1875;-87
2021/07/21 18:15:22;;;;;;;;;;;;;;;23.22;28.57;97636.78;5048466;28;1290;-87
2021/07/21 18:17:49;;;;;;;;;;;;;;;23.28;28.70;97632.06;5049470;28;1296;-87
2021/07/21 18:20:14;;;;;;;;;;;;;;;23.28;28.54;97631.28;5065868;28;955;-87
2021/07/21 18:22:40;;;;;;;;;;;;;;;23.28;28.57;97637.75;5049679;28;1162;-87
2021/07/21 18:25:06;;;;;;;;;;;;;;;23.30;28.83;97638.06;5049199;28;1322;-87
2021/07/21 18:27:31;;;;;;;;;;;;;;;23.27;28.80;97639.00;5048684;28;1282;-87
2021/07/21 18:29:57;;;;;;;;;;;;;;;23.40;28.63;97641.75;5065483;28;922;-87
2021/07/21 18:32:22;;;;;;;;;;;;;;;23.28;28.84;97637.75;5065423;28;1980;-87
2021/07/21 18:34:48;;;;;;;;;;;;;;;23.27;28.62;97650.38;5048567;28;1133;-87
2021/07/21 18:37:13;;;;;;;;;;;;;;;23.20;28.85;97656.31;5048928;28;1152;-87
2021/07/21 18:39:39;;;;;;;;;;;;;;;23.15;29.05;97654.06;5064457;28;994;-87
2021/07/21 18:42:04;;;;;;;;;;;;;;;23.21;28.93;97660.75;5048276;28;1286;-87
2021/07/21 18:44:29;;;;;;;;;;;;;;;22.99;28.82;97663.56;5048364;28;1273;-88
2021/07/21 18:46:55;;;;;;;;;;;;;;;23.25;28.80;97675.56;5047039;28;1284;-88
2021/07/21 18:49:21;;;;;;;;;;;;;;;23.39;28.35;97669.34;5047983;28;1291;-86
2021/07/21 18:51:46;;;;;;;;;;;;;;;23.36;28.27;97661.78;5064576;28;1989;-86
2021/07/21 18:54:12;;;;;;;;;;;;;;;23.29;28.59;97664.88;5047762;28;961;-86
2021/07/21 18:56:37;;;;;;;;;;;;;;;23.39;28.02;97663.66;5064619;28;917;-86
2021/07/21 18:59:05;;;;;;;;;;;;;;;23.29;28.26;97664.88;5064111;28;970;-86
2021/07/21 19:01:30;;;;;;;;;;;;;;;23.53;28.18;97656.63;5064362;28;966;-86
2021/07/21 19:03:56;;;;;;;;;;;;;;;23.47;28.18;97663.41;5047591;28;1160;-86
2021/07/21 19:06:21;;;;;;;;;;;;;;;23.40;28.28;97658.78;5065588;28;765;-85
2021/07/21 19:08:47;;;;;;;;;;;;;;;23.36;28.66;97652.44;5063504;28;971;-86
2021/07/21 19:11:13;;;;;;;;;;;;;;;23.30;28.68;97651.47;5047225;28;1164;-86
2021/07/21 19:13:40;;;;;;;;;;;;;;;23.21;28.65;97663.59;5046890;28;1894;-86
2021/07/21 19:16:06;;;;;;;;;;;;;;;23.31;28.92;97679.41;5064650;28;937;-86
2021/07/21 19:18:31;;;;;;;;;;;;;;;23.29;28.95;97681.91;5063536;28;844;-86
2021/07/21 19:20:57;;;;;;;;;;;;;;;23.27;29.09;97690.09;5064440;28;774;-86
2021/07/21 19:23:22;;;;;;;;;;;;;;;23.22;29.27;97679.34;5046725;28;1055;-86
2021/07/21 19:25:48;;;;;;;;;;;;;;;23.28;28.89;97679.53;5064086;28;1030;-86
2021/07/21 19:28:13;;;;;;;;;;;;;;;23.24;29.13;97691.03;5063867;28;1144;-86
2021/07/21 19:30:39;;;;;;;;;;;;;;;23.33;28.89;97681.78;5063867;28;1022;-86
2021/07/21 19:33:06;;;;;;;;;;;;;;;23.34;29.33;97683.34;5063825;28;1902;-86
2021/07/21 19:35:31;;;;;;;;;;;;;;;22.86;29.46;97626.75;5047567;28;1178;-86
2021/07/21 19:37:57;;;;;;;;;;;;;;;23.26;29.30;97688.53;5047197;28;1238;-86
2021/07/21 19:40:22;;;;;;;;;;;;;;;23.43;28.93;97686.25;5062952;28;990;-84
2021/07/21 19:42:48;;;;;;;;;;;;;;;23.38;29.27;97673.44;5061481;28;1177;-85
2021/07/21 19:45:13;;;;;;;;;;;;;;;23.45;29.22;97682.94;5064032;28;888;-85